Janousek, South Dakota
Current Conditions -  °F | °C
As of 9:35 PM on Monday 22 Dec 2014 (Local Time) from KYKN Reporting Station
Overcast Overcast  
Wind Chill: 26°   Ceiling: 500
Heat Index: 34°   Visibility: 6mi
Dew Point: 32°   Wind: 10mph
Humidity: 93%   Direction: 320°NW
Pressure: 29.49"   Gusts: NA
Location:  42.9288°N, 97.7254°W
Report Text: KYKN 230335Z AUTO 32009KT 6SM OVC005 01/00 A2949 RMK AO1 P0001
Loading
Personal Weather Stations






























Interactive Weather Map New forecast layout! Learn more

10-Day Weather Forecast

Advertisements
Track Severe Weather on mobile